Time;durP1;ratioP1;P1;durP2;ratioP2;P2;SDS_P1;SDS_P2;PMS_P1;PMS_P2;Temp;Humidity;BMP_temperature;BMP_pressure;BME280_temperature;BME280_humidity;BME280_pressure;Samples;Min_cycle;Max_cycle;Signal;HPM_P1;HPM_P2
2021/12/10 00:01:27;;;;;;;9.55;5.13;;;;;;;1.73;100.00;99214.91;6011793;29;20042;-93
2021/12/10 00:04:32;;;;;;;11.63;4.97;;;;;;;1.75;100.00;99209.72;6013611;29;20109;-93
2021/12/10 00:07:34;;;;;;;10.02;5.00;;;;;;;1.78;100.00;99206.16;6006030;29;20061;-93
2021/12/10 00:10:41;;;;;;;9.93;5.70;;;;;;;1.76;100.00;99211.34;6009917;29;20056;-93
2021/12/10 00:13:45;;;;;;;8.18;4.97;;;;;;;1.77;100.00;99202.00;6009608;29;20137;-93
2021/12/10 00:16:48;;;;;;;10.88;5.10;;;;;;;1.80;100.00;99197.50;6008677;29;20046;-93
2021/12/10 00:19:56;;;;;;;10.95;5.88;;;;;;;1.79;100.00;99180.56;6011942;29;20046;-93
2021/12/10 00:23:04;;;;;;;8.32;5.70;;;;;;;1.76;100.00;99172.28;6012814;29;20042;-93
2021/12/10 00:26:06;;;;;;;7.63;5.00;;;;;;;1.73;100.00;99175.84;6010310;29;20042;-93
2021/12/10 00:29:08;;;;;;;14.95;5.97;;;;;;;1.73;100.00;99163.91;6010287;29;20050;-93
2021/12/10 00:32:31;;;;;;;15.77;6.28;;;;;;;1.84;100.00;99159.84;6010043;29;20057;-93
2021/12/10 00:35:33;;;;;;;9.60;5.70;;;;;;;1.89;100.00;99145.06;5996505;29;20400;-93
2021/12/10 00:38:36;;;;;;;11.18;5.53;;;;;;;1.85;100.00;99139.34;6010691;29;20047;-93
2021/12/10 00:41:40;;;;;;;11.55;5.85;;;;;;;1.89;100.00;99145.06;6003404;29;20059;-93
2021/12/10 00:44:44;;;;;;;9.07;5.80;;;;;;;1.91;100.00;99141.50;6011908;29;20047;-93
2021/12/10 00:48:01;;;;;;;11.55;5.38;;;;;;;1.91;100.00;99135.56;6008540;29;20050;-93
2021/12/10 00:51:06;;;;;;;9.25;5.18;;;;;;;1.93;100.00;99131.19;6007373;29;20134;-93
2021/12/10 00:54:10;;;;;;;9.10;5.53;;;;;;;1.96;100.00;99132.72;6008487;29;20066;-94
2021/12/10 00:57:13;;;;;;;12.00;5.43;;;;;;;1.95;100.00;99126.78;6004309;29;20057;-93
2021/12/10 01:00:22;;;;;;;8.50;5.38;;;;;;;1.93;100.00;99126.88;6018305;29;20054;-93
2021/12/10 01:04:09;;;;;;;10.30;5.90;;;;;;;1.99;100.00;99127.41;5989781;29;20058;-93
2021/12/10 01:07:15;;;;;;;10.82;5.38;;;;;;;2.02;100.00;99124.66;6010248;29;20049;-93
2021/12/10 01:10:31;;;;;;;11.95;6.38;;;;;;;2.02;100.00;99120.38;6004291;29;20055;-93
2021/12/10 01:13:38;;;;;;;10.85;5.40;;;;;;;2.01;100.00;99112.81;6004704;29;20106;-93
2021/12/10 01:27:25;;;;;;;11.95;6.40;;;;;;;2.01;100.00;99092.41;5988712;29;20704;-93
2021/12/10 01:30:31;;;;;;;12.18;5.75;;;;;;;1.97;100.00;99085.88;6018036;29;20063;-93
2021/12/10 01:33:34;;;;;;;8.98;5.63;;;;;;;1.97;100.00;99068.84;6002541;29;20049;-93
2021/12/10 01:36:38;;;;;;;10.63;6.60;;;;;;;1.93;100.00;99078.41;6005268;29;20050;-93
2021/12/10 01:39:42;;;;;;;11.55;6.43;;;;;;;1.97;100.00;99075.69;6002730;29;20046;-93
2021/12/10 01:42:47;;;;;;;9.63;6.45;;;;;;;1.96;100.00;99079.13;6001363;29;20051;-94
2021/12/10 01:46:01;;;;;;;9.43;5.60;;;;;;;2.01;100.00;99064.31;6006793;29;20091;-93
2021/12/10 01:49:05;;;;;;;10.75;5.55;;;;;;;1.94;100.00;99062.19;5985925;29;20042;-93
2021/12/10 01:52:08;;;;;;;11.25;6.55;;;;;;;1.93;100.00;99047.78;6002285;29;20425;-93
2021/12/10 01:55:11;;;;;;;9.15;5.72;;;;;;;1.93;100.00;99042.69;6004593;29;20050;-93
2021/12/10 01:58:19;;;;;;;8.50;5.90;;;;;;;2.00;100.00;99038.00;6000734;29;20974;-93
2021/12/10 02:01:35;;;;;;;9.63;6.10;;;;;;;2.02;100.00;99038.72;6002336;29;20053;-93
2021/12/10 02:04:40;;;;;;;10.48;6.40;;;;;;;2.00;100.00;99047.41;6017870;29;20223;-93
2021/12/10 02:07:42;;;;;;;13.20;6.82;;;;;;;2.02;100.00;99035.34;6006418;29;20045;-93
2021/12/10 02:10:45;;;;;;;9.00;5.93;;;;;;;2.01;100.00;99036.25;5989916;29;20625;-93
2021/12/10 02:13:47;;;;;;;8.45;5.88;;;;;;;2.06;100.00;99031.66;6003190;29;20496;-93
2021/12/10 02:16:53;;;;;;;12.25;5.90;;;;;;;2.03;100.00;99032.69;6002487;29;20064;-93
2021/12/10 02:19:55;;;;;;;9.60;6.25;;;;;;;1.99;100.00;99026.16;6005402;29;20049;-93
2021/12/10 02:22:57;;;;;;;9.65;5.97;;;;;;;1.93;100.00;99024.00;6007742;29;20274;-93
2021/12/10 02:26:01;;;;;;;9.07;5.63;;;;;;;1.92;100.00;99017.28;6004962;29;20107;-93
2021/12/10 02:29:05;;;;;;;9.77;6.22;;;;;;;1.86;100.00;99013.44;6006325;29;20042;-93
2021/12/10 02:32:10;;;;;;;9.48;5.65;;;;;;;1.83;100.00;99008.50;5998724;29;20055;-93
2021/12/10 02:35:14;;;;;;;9.40;5.70;;;;;;;1.79;100.00;99001.16;6006613;29;20051;-93
2021/12/10 02:38:18;;;;;;;11.27;5.95;;;;;;;1.71;100.00;99004.22;6003819;29;20038;-93
2021/12/10 02:41:23;;;;;;;12.27;6.22;;;;;;;1.57;100.00;98996.72;5996139;29;20072;-93
2021/12/10 02:44:29;;;;;;;9.85;6.03;;;;;;;1.65;100.00;98995.25;5995609;29;20106;-92
2021/12/10 02:47:31;;;;;;;10.20;6.28;;;;;;;1.65;100.00;98997.81;5999669;29;20113;-93
2021/12/10 02:50:35;;;;;;;8.43;6.05;;;;;;;1.66;100.00;98996.06;6014623;29;20050;-93
2021/12/10 02:53:44;;;;;;;10.38;6.18;;;;;;;1.70;100.00;98993.22;6003936;29;20078;-93
2021/12/10 02:56:46;;;;;;;11.32;6.10;;;;;;;1.71;100.00;98984.66;6005002;29;20042;-93
2021/12/10 02:59:48;;;;;;;9.23;5.82;;;;;;;1.73;100.00;98979.44;6003422;29;20045;-93
2021/12/10 03:02:50;;;;;;;10.35;6.13;;;;;;;1.76;100.00;98973.31;6001382;29;20061;-93
2021/12/10 03:05:52;;;;;;;9.32;6.03;;;;;;;1.80;100.00;98974.75;6003667;29;20042;-93
2021/12/10 03:08:56;;;;;;;9.45;5.90;;;;;;;1.82;100.00;98975.47;6003884;29;20050;-93
2021/12/10 03:12:00;;;;;;;11.40;6.10;;;;;;;1.82;100.00;98962.72;6000916;29;20057;-93
2021/12/10 03:15:03;;;;;;;12.10;6.63;;;;;;;1.83;100.00;98962.59;6000861;29;20054;-93
2021/12/10 03:18:09;;;;;;;11.88;5.97;;;;;;;1.88;100.00;98963.09;5998426;29;20054;-93
2021/12/10 03:21:17;;;;;;;9.88;5.82;;;;;;;1.91;100.00;98960.34;5995915;29;20066;-93
2021/12/10 03:24:24;;;;;;;9.73;6.00;;;;;;;1.96;100.00;98957.47;5998149;29;20428;-93
2021/12/10 03:27:26;;;;;;;11.20;6.38;;;;;;;2.00;100.00;98951.22;6015409;29;20137;-93
2021/12/10 03:30:33;;;;;;;13.07;6.88;;;;;;;2.01;100.00;98949.50;6002261;29;20051;-93
2021/12/10 03:33:36;;;;;;;9.70;5.82;;;;;;;1.94;100.00;98954.22;6003347;29;20093;-93
2021/12/10 03:36:45;;;;;;;9.65;5.88;;;;;;;1.89;100.00;98951.97;5999719;29;20042;-93
2021/12/10 03:39:49;;;;;;;11.27;5.90;;;;;;;1.89;100.00;98946.88;5996719;29;20103;-93
2021/12/10 03:43:08;;;;;;;11.88;6.68;;;;;;;1.91;100.00;98944.22;5998478;29;20052;-93
2021/12/10 03:46:10;;;;;;;10.80;6.53;;;;;;;1.92;100.00;98941.56;5985873;29;20389;-93
2021/12/10 03:49:13;;;;;;;13.70;6.25;;;;;;;1.92;100.00;98941.56;6000832;29;20057;-93
2021/12/10 03:52:16;;;;;;;13.40;6.68;;;;;;;1.93;100.00;98937.25;5997251;29;20056;-93
2021/12/10 03:55:21;;;;;;;11.80;6.90;;;;;;;1.95;100.00;98940.53;6000694;29;20065;-93
2021/12/10 03:58:23;;;;;;;10.02;6.45;;;;;;;1.98;100.00;98944.59;5997399;29;20062;-93
2021/12/10 04:01:29;;;;;;;14.65;7.65;;;;;;;1.94;100.00;98939.72;6002036;29;20125;-93
2021/12/10 04:04:37;;;;;;;16.70;7.63;;;;;;;1.93;100.00;98943.19;6003613;29;20094;-93
2021/12/10 04:07:40;;;;;;;15.52;7.50;;;;;;;2.01;100.00;98923.97;6000154;29;20109;-93
2021/12/10 04:10:43;;;;;;;14.25;7.13;;;;;;;2.00;100.00;98919.81;5998883;29;20047;-93
2021/12/10 04:13:48;;;;;;;16.83;8.18;;;;;;;2.06;100.00;98915.09;5999058;29;20070;-92
2021/12/10 04:16:55;;;;;;;14.20;7.45;;;;;;;1.96;100.00;98897.97;6002791;29;20103;-93
2021/12/10 04:19:58;;;;;;;14.57;8.25;;;;;;;2.04;100.00;98900.81;6000198;29;20058;-93
2021/12/10 04:23:04;;;;;;;15.85;7.72;;;;;;;1.94;100.00;98903.19;5998711;29;20113;-93
2021/12/10 04:26:06;;;;;;;14.00;7.72;;;;;;;1.85;100.00;98901.28;6004904;29;20050;-93
2021/12/10 04:29:09;;;;;;;13.40;7.05;;;;;;;1.79;100.00;98897.41;6006051;29;20287;-93
2021/12/10 04:32:13;;;;;;;15.57;8.32;;;;;;;1.72;100.00;98893.66;6006680;29;20057;-93
2021/12/10 04:35:18;;;;;;;17.20;8.32;;;;;;;1.62;100.00;98900.31;6006106;29;20107;-93
2021/12/10 04:38:21;;;;;;;13.32;7.43;;;;;;;1.58;100.00;98911.63;6008981;29;20048;-93
2021/12/10 04:41:37;;;;;;;16.98;8.38;;;;;;;1.52;100.00;98897.56;6003167;29;20047;-94
2021/12/10 04:44:39;;;;;;;15.18;8.13;;;;;;;1.50;100.00;98905.31;6006480;29;20049;-93
2021/12/10 04:47:42;;;;;;;18.52;8.45;;;;;;;1.48;100.00;98902.03;6003479;29;20046;-93
2021/12/10 04:50:44;;;;;;;14.63;8.52;;;;;;;1.51;100.00;98901.81;6006478;29;20109;-93
2021/12/10 04:53:46;;;;;;;14.27;8.68;;;;;;;1.54;100.00;98900.84;6003485;29;20042;-93
2021/12/10 04:56:50;;;;;;;13.23;7.63;;;;;;;1.57;100.00;98895.53;6006432;29;20050;-93
2021/12/10 04:59:53;;;;;;;13.50;7.78;;;;;;;1.60;100.00;98889.38;6002157;29;20046;-93
2021/12/10 05:02:57;;;;;;;14.93;7.97;;;;;;;1.61;100.00;98885.91;6003476;29;20098;-93
2021/12/10 05:06:03;;;;;;;14.80;7.65;;;;;;;1.59;100.00;98880.09;6004160;29;20050;-93
2021/12/10 05:09:08;;;;;;;18.13;8.30;;;;;;;1.50;100.00;98873.91;6002776;29;20134;-93
2021/12/10 05:12:10;;;;;;;14.25;8.45;;;;;;;1.37;100.00;98873.13;6004047;29;20053;-93
2021/12/10 05:15:20;;;;;;;15.27;8.25;;;;;;;1.22;100.00;98870.69;6004611;29;20422;-93
2021/12/10 05:18:24;;;;;;;13.30;8.27;;;;;;;1.18;100.00;98865.88;6002106;29;20122;-93
2021/12/10 05:21:30;;;;;;;11.68;7.05;;;;;;;1.13;100.00;98863.63;6002484;29;20111;-93
2021/12/10 05:24:32;;;;;;;14.27;7.30;;;;;;;1.12;100.00;98859.47;6004348;29;20126;-93
2021/12/10 05:27:34;;;;;;;12.88;7.20;;;;;;;1.01;100.00;98855.06;6005129;29;20114;-93
2021/12/10 05:30:38;;;;;;;12.93;7.03;;;;;;;1.02;100.00;98845.72;6004754;29;20049;-93
2021/12/10 05:33:40;;;;;;;11.20;6.65;;;;;;;0.98;100.00;98847.63;6002971;29;20049;-93
2021/12/10 05:36:43;;;;;;;15.13;7.22;;;;;;;0.98;100.00;98846.81;5998347;29;20564;-93
2021/12/10 05:39:46;;;;;;;12.65;6.88;;;;;;;0.94;100.00;98843.66;6004204;29;20070;-93
2021/12/10 05:42:47;;;;;;;12.70;6.63;;;;;;;0.92;100.00;98830.22;6018179;29;20049;-93
2021/12/10 05:45:50;;;;;;;12.13;6.32;;;;;;;0.93;100.00;98836.94;6004003;29;20065;-93
2021/12/10 05:48:53;;;;;;;11.77;5.95;;;;;;;0.92;100.00;98837.88;6000963;29;20083;-93
2021/12/10 05:51:55;;;;;;;13.80;6.75;;;;;;;0.91;100.00;98836.22;6000180;29;20057;-93
2021/12/10 05:54:57;;;;;;;14.00;6.53;;;;;;;0.93;100.00;98828.50;6000994;29;20027;-93
2021/12/10 05:58:00;;;;;;;12.40;6.32;;;;;;;0.92;100.00;98827.69;6001522;29;20046;-93
2021/12/10 06:01:07;;;;;;;11.07;6.95;;;;;;;0.90;100.00;98823.59;5999703;29;20046;-93
2021/12/10 06:04:09;;;;;;;11.63;6.55;;;;;;;0.89;100.00;98810.03;6002742;29;20050;-93
2021/12/10 06:07:11;;;;;;;9.50;6.00;;;;;;;0.93;100.00;98811.47;6001571;29;20046;-93
2021/12/10 06:10:15;;;;;;;12.77;6.65;;;;;;;0.97;100.00;98804.41;6000724;29;20079;-93
2021/12/10 06:13:18;;;;;;;12.52;6.40;;;;;;;0.86;100.00;98802.59;6001369;29;20047;-93
2021/12/10 06:16:20;;;;;;;12.23;6.72;;;;;;;0.67;100.00;98792.00;6002959;29;20050;-93
2021/12/10 06:19:23;;;;;;;9.98;6.22;;;;;;;0.51;100.00;98797.31;6003619;29;20057;-92
2021/12/10 06:22:26;;;;;;;11.48;6.45;;;;;;;0.35;100.00;98794.94;5985965;29;20049;-93
2021/12/10 06:25:30;;;;;;;9.02;5.68;;;;;;;0.23;100.00;98786.38;6000073;29;20061;-93
2021/12/10 06:28:35;;;;;;;12.85;6.70;;;;;;;0.12;100.00;98783.69;5995782;29;20046;-93
2021/12/10 06:31:39;;;;;;;12.68;5.90;;;;;;;0.10;100.00;98788.88;6000496;29;20050;-93
2021/12/10 06:34:50;;;;;;;11.65;6.15;;;;;;;0.06;100.00;98781.56;6002148;29;20054;-93
2021/12/10 06:37:53;;;;;;;10.98;6.03;;;;;;;0.01;100.00;98786.91;6000593;29;20429;-93
2021/12/10 06:41:00;;;;;;;13.82;6.60;;;;;;;-0.09;100.00;98779.06;5999618;29;20096;-93
2021/12/10 06:44:04;;;;;;;12.80;6.20;;;;;;;-0.08;100.00;98788.31;5998235;29;20042;-93
2021/12/10 06:47:08;;;;;;;12.50;6.85;;;;;;;0.09;100.00;98794.88;5997651;29;20140;-93
2021/12/10 06:50:11;;;;;;;11.20;6.13;;;;;;;0.32;100.00;98797.66;5996199;29;20062;-93
2021/12/10 06:53:13;;;;;;;13.90;6.55;;;;;;;0.51;100.00;98794.75;5993944;29;20050;-93
2021/12/10 06:56:16;;;;;;;10.90;5.97;;;;;;;0.65;100.00;98789.56;5997408;29;20054;-93
2021/12/10 06:59:19;;;;;;;11.82;6.55;;;;;;;0.69;100.00;98785.09;6006629;29;20056;-92
2021/12/10 07:02:20;;;;;;;13.27;6.72;;;;;;;0.77;100.00;98787.94;5992428;29;20059;-93
2021/12/10 07:05:23;;;;;;;11.93;6.80;;;;;;;0.85;100.00;98785.72;5994170;29;20054;-93
2021/12/10 07:08:27;;;;;;;13.40;6.97;;;;;;;0.90;100.00;98787.94;5993866;29;20042;-93
2021/12/10 07:11:30;;;;;;;14.20;6.88;;;;;;;0.92;100.00;98775.91;6008416;29;20676;-93
2021/12/10 07:14:32;;;;;;;10.52;6.32;;;;;;;0.90;100.00;98781.13;5999056;29;20400;-92
2021/12/10 07:17:55;;;;;;;14.55;6.55;;;;;;;0.94;100.00;98777.44;5997785;29;20106;-93
2021/12/10 07:20:57;;;;;;;13.30;6.47;;;;;;;0.93;100.00;98778.34;5999734;29;20050;-93
2021/12/10 07:24:05;;;;;;;12.50;6.38;;;;;;;0.88;100.00;98770.22;5998883;29;20043;-93
2021/12/10 07:27:11;;;;;;;12.75;5.93;;;;;;;0.98;100.00;98768.66;5997467;29;20050;-92
2021/12/10 07:30:24;;;;;;;10.75;6.20;;;;;;;0.92;100.00;98775.91;5997190;29;20072;-93
2021/12/10 07:33:26;;;;;;;9.13;5.57;;;;;;;0.92;100.00;98770.81;5995036;29;20046;-93
2021/12/10 07:36:30;;;;;;;10.95;6.68;;;;;;;1.03;100.00;98773.44;5993255;29;20184;-93
2021/12/10 07:39:32;;;;;;;16.63;6.35;;;;;;;1.15;100.00;98761.63;5994355;29;20046;-93
2021/12/10 07:42:34;;;;;;;9.80;6.57;;;;;;;1.22;100.00;98762.84;5992808;29;20043;-93
2021/12/10 07:45:38;;;;;;;11.93;6.30;;;;;;;1.42;100.00;98754.59;5994010;29;20112;-93
2021/12/10 07:48:42;;;;;;;11.95;6.50;;;;;;;1.51;100.00;98753.94;5993849;29;20061;-93
2021/12/10 07:51:49;;;;;;;9.98;6.40;;;;;;;1.66;100.00;98746.16;5992848;29;20114;-93
2021/12/10 07:54:52;;;;;;;11.75;6.28;;;;;;;1.77;100.00;98738.56;5993039;29;20050;-93
2021/12/10 07:57:55;;;;;;;11.27;6.68;;;;;;;1.73;100.00;98732.84;5994863;29;20103;-92
2021/12/10 08:00:58;;;;;;;9.57;5.85;;;;;;;1.78;100.00;98739.38;5998483;29;20054;-93
2021/12/10 08:04:02;;;;;;;13.43;5.82;;;;;;;1.83;100.00;98739.84;5988121;29;20065;-91
2021/12/10 08:07:05;;;;;;;10.30;6.13;;;;;;;1.86;100.00;98732.81;5980756;29;20047;-91
2021/12/10 08:10:10;;;;;;;10.32;5.70;;;;;;;1.82;100.00;98738.22;5983214;29;20436;-91
2021/12/10 08:13:13;;;;;;;8.95;4.90;;;;;;;1.84;100.00;98731.25;5982759;29;20057;-91
2021/12/10 08:16:16;;;;;;;9.55;4.82;;;;;;;1.94;100.00;98730.50;5980521;29;20131;-91
2021/12/10 08:19:19;;;;;;;12.32;6.45;;;;;;;2.06;100.00;98733.06;5980335;29;20496;-91
2021/12/10 08:22:20;;;;;;;10.35;5.65;;;;;;;2.13;100.00;98729.16;5981384;29;20055;-91
2021/12/10 08:25:24;;;;;;;10.77;5.40;;;;;;;2.17;100.00;98728.03;5981988;29;20149;-91
2021/12/10 08:28:27;;;;;;;9.05;5.75;;;;;;;2.21;100.00;98724.31;5980629;29;20042;-91
2021/12/10 08:31:29;;;;;;;9.57;5.45;;;;;;;2.34;100.00;98721.69;5982954;29;20057;-91
2021/12/10 08:34:32;;;;;;;10.70;5.93;;;;;;;2.45;100.00;98723.41;5980296;29;20050;-91
2021/12/10 08:37:34;;;;;;;10.45;5.70;;;;;;;2.55;100.00;98722.63;5981315;29;20121;-91
2021/12/10 08:40:57;;;;;;;8.98;5.40;;;;;;;2.62;100.00;98707.66;5981226;29;20065;-91
2021/12/10 08:44:01;;;;;;;8.25;5.28;;;;;;;2.73;100.00;98704.28;5981736;29;20042;-91
2021/12/10 08:47:09;;;;;;;8.15;6.05;;;;;;;2.82;100.00;98715.56;5979152;29;20127;-91
2021/12/10 08:50:11;;;;;;;8.55;4.88;;;;;;;2.88;100.00;98704.84;5982657;29;20489;-91
2021/12/10 08:53:14;;;;;;;10.23;5.32;;;;;;;2.92;100.00;98707.06;5979779;29;20228;-91
2021/12/10 08:56:17;;;;;;;9.55;5.43;;;;;;;2.95;100.00;98711.13;5981182;29;20060;-91
2021/12/10 08:59:23;;;;;;;15.73;6.65;;;;;;;2.97;100.00;98704.97;5981578;29;20615;-91
2021/12/10 09:02:25;;;;;;;12.20;4.90;;;;;;;3.06;100.00;98715.44;5981445;29;20394;-91
2021/12/10 09:05:29;;;;;;;11.07;5.25;;;;;;;3.08;100.00;98705.88;5976407;29;20042;-91
2021/12/10 09:08:31;;;;;;;9.10;5.78;;;;;;;3.12;100.00;98707.28;5973624;29;20046;-91
2021/12/10 09:11:35;;;;;;;9.43;4.53;;;;;;;3.10;100.00;98709.94;5967263;29;20058;-91
2021/12/10 09:14:54;;;;;;;10.15;5.15;;;;;;;3.18;100.00;98702.50;5964728;29;20183;-91
2021/12/10 09:18:06;;;;;;;10.75;5.22;;;;;;;3.24;100.00;98702.00;5971883;29;20050;-91
2021/12/10 09:21:09;;;;;;;8.23;5.15;;;;;;;3.23;100.00;98700.41;5969863;29;20243;-91
2021/12/10 09:24:14;;;;;;;8.07;4.72;;;;;;;3.26;100.00;98708.75;5968847;29;20050;-91
2021/12/10 09:27:16;;;;;;;6.60;4.53;;;;;;;3.30;100.00;98710.13;5966280;29;20046;-91
2021/12/10 09:30:21;;;;;;;7.97;4.90;;;;;;;3.29;100.00;98706.78;5990549;29;20218;-91
2021/12/10 09:33:23;;;;;;;11.90;5.22;;;;;;;3.35;100.00;98711.38;5965750;29;20054;-91
2021/12/10 09:36:27;;;;;;;8.52;5.15;;;;;;;3.31;100.00;98704.91;5970659;29;20061;-91
2021/12/10 09:39:31;;;;;;;9.20;5.10;;;;;;;3.34;100.00;98697.00;5971955;29;20051;-91
2021/12/10 09:42:33;;;;;;;8.20;4.72;;;;;;;3.37;100.00;98701.06;5979014;29;20049;-91
2021/12/10 09:45:39;;;;;;;8.48;4.47;;;;;;;3.33;100.00;98709.88;5971171;29;20043;-91
2021/12/10 09:48:43;;;;;;;8.50;5.13;;;;;;;3.32;100.00;98700.59;5962391;29;20092;-91
2021/12/10 09:51:57;;;;;;;6.88;4.68;;;;;;;3.34;100.00;98697.00;5964731;29;20054;-91
2021/12/10 09:54:59;;;;;;;9.02;4.68;;;;;;;3.43;100.00;98692.91;5977831;29;20050;-91
2021/12/10 09:58:15;;;;;;;9.40;5.13;;;;;;;3.52;100.00;98687.06;5967716;29;20085;-91
2021/12/10 10:01:27;;;;;;;9.50;4.85;;;;;;;3.60;100.00;98686.44;5967045;29;20511;-91
2021/12/10 10:04:34;;;;;;;10.45;4.88;;;;;;;3.72;100.00;98679.53;5984582;29;20057;-91
2021/12/10 10:07:38;;;;;;;7.90;4.70;;;;;;;3.81;100.00;98682.16;5975758;29;20084;-91
2021/12/10 10:10:45;;;;;;;7.53;4.38;;;;;;;3.89;100.00;98678.97;5975756;29;20057;-91
2021/12/10 10:13:50;;;;;;;7.32;4.05;;;;;;;4.03;100.00;98678.69;5981724;29;20054;-91
2021/12/10 10:16:53;;;;;;;7.80;4.50;;;;;;;4.04;100.00;98672.63;5970289;29;20057;-91
2021/12/10 10:19:55;;;;;;;7.57;4.78;;;;;;;4.05;100.00;98668.28;5969317;29;20054;-91
2021/12/10 10:23:06;;;;;;;6.55;4.40;;;;;;;4.05;100.00;98671.69;5971339;29;20042;-91
2021/12/10 10:26:17;;;;;;;7.43;4.22;;;;;;;4.09;100.00;98662.00;5975588;29;20057;-91
2021/12/10 10:29:22;;;;;;;8.48;4.78;;;;;;;4.17;100.00;98661.38;5987504;29;20054;-91
2021/12/10 10:32:30;;;;;;;9.95;4.57;;;;;;;4.28;100.00;98658.75;5981874;29;20054;-91
2021/12/10 10:35:45;;;;;;;7.15;4.88;;;;;;;4.32;100.00;98647.28;5978975;29;20058;-91
2021/12/10 10:38:50;;;;;;;6.45;4.45;;;;;;;4.31;100.00;98651.59;5972499;29;20046;-91
2021/12/10 10:41:55;;;;;;;8.18;4.60;;;;;;;4.28;100.00;98653.63;5979769;29;20505;-91
2021/12/10 10:45:24;;;;;;;9.13;5.60;;;;;;;4.23;100.00;98648.88;5980997;29;20123;-91
2021/12/10 10:48:27;;;;;;;8.98;5.00;;;;;;;4.02;100.00;98648.88;5980724;29;20039;-91
2021/12/10 10:51:36;;;;;;;9.60;4.88;;;;;;;3.98;100.00;98641.59;5980069;29;20038;-91
2021/12/10 10:54:38;;;;;;;8.23;4.88;;;;;;;4.02;100.00;98636.09;5981067;29;20390;-91
2021/12/10 10:58:18;;;;;;;7.82;3.97;;;;;;;4.05;100.00;98627.34;5981148;29;20051;-91
2021/12/10 11:01:37;;;;;;;6.78;4.68;;;;;;;4.12;100.00;98627.66;5981793;29;20069;-91
2021/12/10 11:04:53;;;;;;;8.32;4.93;;;;;;;4.08;100.00;98627.09;5982143;29;20077;-91
2021/12/10 11:07:59;;;;;;;8.95;4.50;;;;;;;4.15;100.00;98620.53;5981345;29;20211;-91
2021/12/10 11:11:15;;;;;;;7.30;4.80;;;;;;;4.15;100.00;98620.53;5979556;29;20102;-91
2021/12/10 11:14:39;;;;;;;7.70;5.07;;;;;;;4.14;100.00;98631.69;5980521;29;20057;-91
2021/12/10 11:17:46;;;;;;;7.13;4.32;;;;;;;4.22;100.00;98626.75;5980662;29;20125;-91
2021/12/10 11:20:48;;;;;;;9.20;4.43;;;;;;;4.34;100.00;98621.56;5979607;29;20046;-91
2021/12/10 11:23:50;;;;;;;7.95;4.50;;;;;;;4.43;100.00;98626.72;5980596;29;20069;-91
2021/12/10 11:26:57;;;;;;;8.40;4.35;;;;;;;4.49;100.00;98618.50;5980951;29;20050;-91
2021/12/10 11:30:19;;;;;;;6.18;4.25;;;;;;;4.48;100.00;98622.03;5979743;29;20050;-91
2021/12/10 11:33:24;;;;;;;7.20;3.85;;;;;;;4.43;100.00;98620.78;5982357;29;20769;-91
2021/12/10 11:36:28;;;;;;;6.40;4.40;;;;;;;4.46;100.00;98628.22;5984879;29;20054;-91
2021/12/10 11:39:45;;;;;;;6.32;3.78;;;;;;;4.38;100.00;98630.63;5985018;29;20069;-91
2021/12/10 11:42:56;;;;;;;9.05;4.20;;;;;;;4.23;100.00;98622.47;5998497;29;20480;-91
2021/12/10 11:49:33;;;;;;;5.25;2.97;;;;;;;4.14;100.00;98628.34;5985024;29;20057;-91
2021/12/10 11:52:37;;;;;;;4.55;2.85;;;;;;;4.11;100.00;98624.28;5984960;29;20050;-91
2021/12/10 11:56:04;;;;;;;3.20;2.22;;;;;;;4.14;100.00;98633.47;5985012;29;20123;-91
2021/12/10 11:59:27;;;;;;;3.67;2.15;;;;;;;4.16;100.00;98627.28;5984900;29;20053;-91
2021/12/10 12:02:49;;;;;;;5.35;2.60;;;;;;;4.16;100.00;98634.16;5977711;29;20513;-91
2021/12/10 12:05:52;;;;;;;4.38;2.40;;;;;;;4.07;100.00;98631.41;5983845;29;20417;-91
2021/12/10 12:08:54;;;;;;;5.03;2.47;;;;;;;4.06;100.00;98634.09;5984117;29;20046;-91
2021/12/10 12:12:19;;;;;;;3.47;2.28;;;;;;;4.09;100.00;98626.97;5984145;29;20038;-91
2021/12/10 12:15:27;;;;;;;7.18;2.42;;;;;;;4.21;100.00;98632.03;5968034;29;20074;-91
2021/12/10 12:18:34;;;;;;;2.05;1.88;;;;;;;4.30;100.00;98629.50;5984323;29;20809;-91
2021/12/10 12:28:09;;;;;;;3.50;1.80;;;;;;;4.49;99.40;98633.88;5984039;29;21696;-91
2021/12/10 12:31:35;;;;;;;1.95;1.70;;;;;;;4.49;98.20;98631.31;5983401;29;20061;-91
2021/12/10 12:34:38;;;;;;;2.38;1.80;;;;;;;4.46;97.17;98628.22;5983971;29;20716;-91
2021/12/10 12:37:45;;;;;;;5.10;2.60;;;;;;;4.50;96.58;98622.69;5983816;29;20046;-91
2021/12/10 12:41:22;;;;;;;2.85;1.98;;;;;;;4.57;97.34;98630.69;5983809;29;20046;-91
2021/12/10 12:44:44;;;;;;;5.20;2.35;;;;;;;4.58;96.51;98613.56;5972940;29;20102;-91
2021/12/10 12:48:11;;;;;;;3.35;1.98;;;;;;;4.52;97.02;98623.41;5983398;29;20049;-91
2021/12/10 12:51:21;;;;;;;3.88;2.20;;;;;;;4.53;96.30;98614.75;5983752;29;20042;-91
2021/12/10 12:54:24;;;;;;;4.60;1.70;;;;;;;4.61;98.08;98606.41;5983860;29;20060;-91
2021/12/10 12:57:46;;;;;;;2.53;1.70;;;;;;;4.37;96.68;98611.03;5983242;29;20050;-91
2021/12/10 13:01:20;;;;;;;2.17;1.67;;;;;;;4.13;98.02;98616.50;5983231;29;20050;-91
2021/12/10 13:04:38;;;;;;;2.15;1.50;;;;;;;4.07;99.07;98620.34;5983193;29;20050;-91
2021/12/10 13:08:07;;;;;;;1.58;1.48;;;;;;;4.08;98.96;98619.44;5983425;29;20050;-91
2021/12/10 13:11:30;;;;;;;5.95;1.77;;;;;;;4.14;100.00;98612.97;5982135;29;20057;-91
2021/12/10 13:14:46;;;;;;;2.47;1.48;;;;;;;4.14;97.70;98613.78;5973249;29;20050;-91
2021/12/10 13:17:57;;;;;;;3.40;1.88;;;;;;;4.17;97.65;98617.84;5972786;29;20054;-91
2021/12/10 13:20:59;;;;;;;4.57;2.40;;;;;;;4.20;98.20;98625.25;5983325;29;20057;-91
2021/12/10 13:24:01;;;;;;;2.80;1.63;;;;;;;4.28;99.14;98631.38;5976245;29;20055;-91
2021/12/10 13:27:05;;;;;;;4.10;1.73;;;;;;;4.36;97.07;98633.28;5977752;29;20057;-91
2021/12/10 13:30:12;;;;;;;3.25;1.85;;;;;;;4.46;97.38;98641.81;5970175;29;20413;-91
2021/12/10 13:33:19;;;;;;;2.92;1.75;;;;;;;4.35;95.88;98631.69;5982739;29;20416;-91
2021/12/10 13:36:21;;;;;;;5.25;1.70;;;;;;;4.21;97.29;98639.69;5972089;29;20074;-91
2021/12/10 13:39:23;;;;;;;2.92;1.58;;;;;;;4.08;98.80;98635.59;5980524;29;20058;-91
2021/12/10 13:42:26;;;;;;;3.17;1.60;;;;;;;4.05;99.34;98640.97;5982917;29;20074;-91
2021/12/10 13:45:29;;;;;;;2.85;1.77;;;;;;;3.97;99.29;98642.53;5981718;29;20533;-91
2021/12/10 13:48:39;;;;;;;3.00;1.70;;;;;;;3.86;100.00;98643.41;5982685;29;20054;-91
2021/12/10 13:51:44;;;;;;;2.73;1.70;;;;;;;3.79;100.00;98655.06;5983073;29;20405;-91
2021/12/10 13:54:53;;;;;;;3.63;1.98;;;;;;;3.72;100.00;98651.38;5981164;29;20437;-91
2021/12/10 13:58:34;;;;;;;3.95;1.98;;;;;;;3.72;100.00;98657.31;5981707;29;20505;-91
2021/12/10 14:01:45;;;;;;;3.40;2.13;;;;;;;3.79;100.00;98661.00;5982009;29;20138;-91
2021/12/10 14:04:48;;;;;;;3.78;2.45;;;;;;;3.78;100.00;98666.25;5981938;29;20053;-91
2021/12/10 14:08:11;;;;;;;3.95;2.05;;;;;;;3.81;100.00;98664.25;5982638;29;20172;-91
2021/12/10 14:11:22;;;;;;;3.47;2.55;;;;;;;3.76;100.00;98665.56;5969207;29;20573;-91
2021/12/10 14:14:54;;;;;;;2.45;1.90;;;;;;;3.65;100.00;98667.25;5981725;29;20125;-91
2021/12/10 14:18:07;;;;;;;4.13;1.90;;;;;;;3.48;100.00;98672.06;5980236;29;20410;-91
2021/12/10 14:21:29;;;;;;;3.15;2.08;;;;;;;3.18;100.00;98668.44;5967854;29;20475;-91
2021/12/10 14:24:53;;;;;;;3.25;1.98;;;;;;;2.88;100.00;98674.19;5981468;29;20042;-91
2021/12/10 14:28:20;;;;;;;4.25;2.13;;;;;;;2.61;100.00;98677.09;5981417;29;20054;-91
2021/12/10 14:31:45;;;;;;;5.15;2.25;;;;;;;2.40;100.00;98682.91;5981262;29;20078;-91
2021/12/10 14:35:11;;;;;;;3.90;2.15;;;;;;;2.17;100.00;98679.53;5969009;29;20674;-91
2021/12/10 14:38:15;;;;;;;3.67;2.20;;;;;;;2.03;100.00;98677.16;5985473;29;20102;-91
2021/12/10 14:41:49;;;;;;;8.70;3.72;;;;;;;1.83;100.00;98687.09;5981482;29;20527;-91
2021/12/10 14:45:11;;;;;;;8.68;3.13;;;;;;;1.68;100.00;98688.19;5980732;29;20138;-91
2021/12/10 14:48:13;;;;;;;7.90;3.78;;;;;;;1.58;100.00;98694.88;5970426;29;20058;-91
2021/12/10 14:51:37;;;;;;;9.18;5.15;;;;;;;1.44;100.00;98694.13;5969777;29;20061;-91
2021/12/10 14:55:28;;;;;;;6.78;4.45;;;;;;;1.31;100.00;98695.91;5975550;29;20046;-91
2021/12/10 14:59:15;;;;;;;7.63;4.68;;;;;;;1.21;100.00;98705.94;5981589;29;20166;-91